Offenbach, Germany

9:03 PM CEST on July 27, 2016 (GMT +0200)
Hagenstraße | | Change Station

Elev 331 ft 50.11 °N, 8.71 °E | Updated 3 minutes ago

Clear
Clear
75.7 °F
Feels Like 78 °F
N
1.2
Wind Variable Wind from West
Gusts 3.7 mph

Today
High -- | Low -- °F
--% Chance of Precip.
Yesterday
High -- | Low -- °F
Precip. -- in
Pressure 30.02 in
Visibility 6.2 miles
Clouds Clear
Heat Index 78 °F
Dew Point 58 °F
Humidity 54%
Rainfall 0.00 in
Snow Depth Not available.
5:47 AM 9:14 PM
Last Quarter, 40% visible
METAR ETOU 271858Z AUTO VRB03KT 9999 CLR 22/11 A3003 RMK AO2 SLP166 T02200110 $
Pressure 30.02 in
Visibility 6.2 miles
Clouds Clear
Heat Index 78 °F
Dew Point 58 °F
Humidity 54%
Rainfall 0.00 in
Snow Depth Not available.
5:47 AM 9:14 PM
Last Quarter, 40% visible
METAR ETOU 271858Z AUTO VRB03KT 9999 CLR 22/11 A3003 RMK AO2 SLP166 T02200110 $

10-Day Weather Forecast

×

Almanac

Astronomy

Jul. 27, 2016 Rise Set
Actual Time
Civil Twilight
Nautical Twilight
Astronomical Twilight
Moon
Length of Visible Light
Length of Day
Tomorrow will be .
, % of the Moon is Illuminated

Today's Extremes

Country Highs Country Lows

Community

WunderPhotos

Upload Photos

1,927,898 photos uploaded!

WunderBlog® & News

Nearby

Air Quality

  Air Quality AQ Index Pollutant
Not available.

Snow Depth

Station Depth Elevation

Earthquake Activity

City Distance Mag. Time & Date
Minimum magnitude displayed is 2.5.

Coastal Water Temperatures

Place Temperature

Stations

Nearby Weather Stations

Station Location Temp. Windchill Dew Point Humidity Wind Precip. Elev Updated Type